Underhill Center, Vermont
Current Conditions -  °F | °C
As of 11:54 AM on Friday 28 Nov 2014 (Local Time) from KBTV Reporting Station
Broken Clouds Broken Clouds  
Wind Chill: 19°   Ceiling: 3500
Heat Index: 27°   Visibility: 10mi
Dew Point: 15°   Wind: 7mph
Humidity: 61%   Direction: 300°WNW
Pressure: 30.1"   Gusts: NA
Location:  44.51°N, 72.9°W
Report Text: KBTV 281654Z 30006KT 10SM BKN035 BKN070 M03/M09 A3010 RMK AO2 SLP197 T10281094
Loading
Personal Weather Stations






























Interactive Weather Map New forecast layout! Learn more

10-Day Weather Forecast

Advertisements
Track Severe Weather on mobile